Time;durP1;ratioP1;P1;durP2;ratioP2;P2;SDS_P1;SDS_P2;PMS_P1;PMS_P2;Temp;Humidity;BMP_temperature;BMP_pressure;BME280_temperature;BME280_humidity;BME280_pressure;Samples;Min_cycle;Max_cycle;Signal;HPM_P1;HPM_P2
2021/07/30 00:01:03;;;;;;;9.82;3.90;;;17.80;74.80;;;;;;5068172;28;20051;-78
2021/07/30 00:03:28;;;;;;;7.45;3.80;;;17.80;74.80;;;;;;5072589;28;20020;-78
2021/07/30 00:05:54;;;;;;;11.30;4.38;;;17.80;74.80;;;;;;5074052;28;20032;-78
2021/07/30 00:08:20;;;;;;;11.27;4.10;;;17.80;74.90;;;;;;5075150;28;20040;-78
2021/07/30 00:10:47;;;;;;;13.20;4.10;;;17.80;74.90;;;;;;5075586;28;20397;-78
2021/07/30 00:13:12;;;;;;;10.23;3.60;;;17.80;74.80;;;;;;5074734;28;20430;-78
2021/07/30 00:15:38;;;;;;;7.07;3.70;;;17.80;74.70;;;;;;5074614;28;20045;-78
2021/07/30 00:18:04;;;;;;;8.13;3.95;;;17.90;74.90;;;;;;5074490;28;20040;-78
2021/07/30 00:20:30;;;;;;;8.73;3.53;;;17.90;74.70;;;;;;5076368;28;20032;-76
2021/07/30 00:22:56;;;;;;;9.43;4.10;;;17.90;74.40;;;;;;5075987;28;20024;-76
2021/07/30 00:25:21;;;;;;;7.78;3.47;;;18.00;74.60;;;;;;5076316;28;20097;-76
2021/07/30 00:27:47;;;;;;;17.10;4.40;;;18.00;74.70;;;;;;5074983;28;20119;-76
2021/07/30 00:30:13;;;;;;;8.90;3.50;;;18.00;74.60;;;;;;5076367;28;20024;-76
2021/07/30 00:32:39;;;;;;;11.57;4.03;;;18.00;74.70;;;;;;5075778;28;20066;-76
2021/07/30 00:35:05;;;;;;;11.60;4.13;;;18.00;74.80;;;;;;5076522;28;20032;-76
2021/07/30 00:37:34;;;;;;;11.43;4.10;;;18.00;74.80;;;;;;5075074;28;20029;-76
2021/07/30 00:39:59;;;;;;;;;;;18.00;74.70;;;;;;5075021;28;20516;-76
2021/07/30 00:42:25;;;;;;;10.00;3.90;;;18.00;74.50;;;;;;5074682;28;19924;-76
2021/07/30 00:44:50;;;;;;;13.63;4.60;;;17.90;74.90;;;;;;5075338;28;20025;-76
2021/07/30 00:47:16;;;;;;;9.10;3.88;;;17.90;74.70;;;;;;5075833;28;20028;-76
2021/07/30 00:49:42;;;;;;;11.30;4.15;;;17.90;74.70;;;;;;5074599;28;20177;-76
2021/07/30 00:52:08;;;;;;;10.32;3.95;;;17.90;74.90;;;;;;5074648;28;20703;-76
2021/07/30 00:54:34;;;;;;;12.15;4.03;;;17.80;75.10;;;;;;5074915;28;20052;-80
2021/07/30 00:57:01;;;;;;;10.27;3.75;;;17.80;74.90;;;;;;5074472;28;20503;-80
2021/07/30 00:59:27;;;;;;;13.32;4.53;;;17.80;74.90;;;;;;5074582;28;20411;-80
2021/07/30 01:01:53;;;;;;;8.05;4.00;;;17.80;75.00;;;;;;5075039;28;20396;-80
2021/07/30 01:04:19;;;;;;;10.77;4.30;;;17.80;75.30;;;;;;5074296;28;20112;-80
2021/07/30 01:06:45;;;;;;;12.23;4.05;;;17.80;75.30;;;;;;5075737;28;20028;-80
2021/07/30 01:09:11;;;;;;;9.70;3.80;;;17.80;75.40;;;;;;5075812;28;20025;-80
2021/07/30 01:11:37;;;;;;;9.02;3.95;;;17.80;75.20;;;;;;5057804;28;20467;-80
2021/07/30 01:14:03;;;;;;;8.57;3.97;;;17.70;75.20;;;;;;5075444;28;20439;-79
2021/07/30 01:16:29;;;;;;;17.02;4.07;;;17.70;75.40;;;;;;5074529;28;20032;-80
2021/07/30 01:18:54;;;;;;;11.90;3.90;;;17.70;75.40;;;;;;5075499;28;20045;-80
2021/07/30 01:21:30;;;;;;;11.05;4.28;;;17.70;75.40;;;;;;5073795;28;20039;-80
2021/07/30 01:23:56;;;;;;;10.55;3.88;;;17.80;75.80;;;;;;5075382;28;20524;-80
2021/07/30 01:26:22;;;;;;;8.98;4.20;;;17.70;75.70;;;;;;5078974;28;20388;-80
2021/07/30 01:28:47;;;;;;;10.23;4.13;;;17.70;76.00;;;;;;5074063;28;20024;-80
2021/07/30 01:31:13;;;;;;;10.85;4.05;;;17.60;76.20;;;;;;5074353;28;20032;-80
2021/07/30 01:33:39;;;;;;;9.75;3.95;;;17.60;76.50;;;;;;5074254;28;20028;-80
2021/07/30 01:36:04;;;;;;;7.53;4.05;;;17.50;76.80;;;;;;5075395;28;20039;-80
2021/07/30 01:38:32;;;;;;;12.82;4.10;;;17.40;77.10;;;;;;5058817;28;20033;-80
2021/07/30 01:41:08;;;;;;;11.00;3.65;;;17.40;77.50;;;;;;5055268;28;20070;-80
2021/07/30 01:43:35;;;;;;;9.63;4.32;;;17.30;77.80;;;;;;5055230;28;20114;-80
2021/07/30 01:46:01;;;;;;;7.47;3.95;;;17.20;78.20;;;;;;5054060;28;20048;-80
2021/07/30 01:48:26;;;;;;;10.23;4.20;;;17.20;78.50;;;;;;5055141;28;20444;-80
2021/07/30 01:50:52;;;;;;;8.68;4.30;;;17.10;78.70;;;;;;5054884;28;20381;-80
2021/07/30 01:53:18;;;;;;;8.65;3.63;;;17.10;78.90;;;;;;5055144;28;20035;-80
2021/07/30 01:55:43;;;;;;;9.30;4.40;;;17.00;79.10;;;;;;5037144;28;20029;-80
2021/07/30 01:58:09;;;;;;;14.32;4.40;;;17.00;79.40;;;;;;5054938;28;20029;-79
2021/07/30 02:00:34;;;;;;;9.05;4.05;;;16.90;79.60;;;;;;5053703;28;20116;-80
2021/07/30 02:03:00;;;;;;;10.10;4.65;;;16.90;79.90;;;;;;5057257;28;21931;-80
2021/07/30 02:05:25;;;;;;;9.30;4.25;;;16.80;80.00;;;;;;5073712;28;20052;-80
2021/07/30 02:07:51;;;;;;;12.75;4.25;;;16.70;80.30;;;;;;5074938;28;20473;-80
2021/07/30 02:10:17;;;;;;;10.20;4.22;;;16.70;80.50;;;;;;5073521;28;20021;-80
2021/07/30 02:15:26;;;;;;;10.90;4.75;;;16.70;80.80;;;;;;5054760;28;20095;-80
2021/07/30 02:17:52;;;;;;;8.93;4.40;;;16.70;80.90;;;;;;5054541;28;20122;-80
2021/07/30 02:20:17;;;;;;;9.77;4.90;;;16.60;80.90;;;;;;5053258;28;20105;-79
2021/07/30 02:22:43;;;;;;;10.43;4.85;;;16.60;81.10;;;;;;5054756;28;20067;-80
2021/07/30 02:25:09;;;;;;;9.63;4.45;;;16.60;81.30;;;;;;5074329;28;20063;-80
2021/07/30 02:27:35;;;;;;;9.60;4.35;;;16.50;81.40;;;;;;5073896;28;20033;-80
2021/07/30 02:30:01;;;;;;;10.75;4.90;;;16.50;82.20;;;;;;5072670;28;20610;-79
2021/07/30 02:32:26;;;;;;;9.18;4.97;;;16.50;81.70;;;;;;5074209;28;20025;-80
2021/07/30 02:34:52;;;;;;;12.48;4.47;;;16.50;81.80;;;;;;5073128;28;20032;-80
2021/07/30 02:37:17;;;;;;;10.45;5.45;;;16.50;81.90;;;;;;5074242;28;20043;-80
2021/07/30 02:39:43;;;;;;;13.50;5.50;;;16.50;82.00;;;;;;5072983;28;20037;-80
2021/07/30 02:42:08;;;;;;;9.95;5.03;;;16.50;82.10;;;;;;5073058;28;20033;-80
2021/07/30 02:44:34;;;;;;;10.20;4.70;;;16.50;82.30;;;;;;5072883;28;20029;-80
2021/07/30 02:47:00;;;;;;;12.63;4.68;;;16.50;82.90;;;;;;5073716;28;20096;-79
2021/07/30 02:49:25;;;;;;;12.45;5.40;;;16.50;82.30;;;;;;5073841;28;20029;-80
2021/07/30 02:51:51;;;;;;;12.10;5.45;;;16.50;82.20;;;;;;5073909;28;20060;-79
2021/07/30 02:54:16;;;;;;;12.60;5.50;;;16.40;82.10;;;;;;5072278;28;20036;-79
2021/07/30 02:56:42;;;;;;;10.18;4.82;;;16.40;82.30;;;;;;5072606;28;20047;-80
2021/07/30 02:59:07;;;;;;;9.65;4.97;;;16.40;82.50;;;;;;5071557;28;20032;-80
2021/07/30 03:01:33;;;;;;;9.20;5.10;;;16.30;82.50;;;;;;5073405;28;20056;-79
2021/07/30 03:03:59;;;;;;;9.40;4.78;;;16.40;82.50;;;;;;5072437;28;20078;-79
2021/07/30 03:06:24;;;;;;;11.68;5.70;;;16.30;82.50;;;;;;5073710;28;20036;-79
2021/07/30 03:08:50;;;;;;;8.52;5.30;;;16.30;82.50;;;;;;5073469;28;20025;-79
2021/07/30 03:11:15;;;;;;;9.18;4.57;;;16.30;82.60;;;;;;5073422;28;20074;-80
2021/07/30 03:13:41;;;;;;;10.70;5.82;;;16.20;82.60;;;;;;5089119;28;20036;-79
2021/07/30 03:16:07;;;;;;;14.20;5.53;;;16.20;82.70;;;;;;5073330;28;20105;-79
2021/07/30 03:18:32;;;;;;;10.65;4.90;;;16.20;82.90;;;;;;5072215;28;20359;-80
2021/07/30 03:20:58;;;;;;;15.15;5.15;;;16.20;83.00;;;;;;5073371;28;20039;-80
2021/07/30 03:23:24;;;;;;;15.30;5.25;;;16.10;83.00;;;;;;5073615;28;20024;-80
2021/07/30 03:25:49;;;;;;;10.68;5.70;;;16.10;83.10;;;;;;5071848;28;20029;-80
2021/07/30 03:28:16;;;;;;;9.00;5.38;;;16.00;83.10;;;;;;5073475;28;20028;-80
2021/07/30 03:30:41;;;;;;;9.30;5.88;;;16.00;83.30;;;;;;5072325;28;20027;-79
2021/07/30 03:33:07;;;;;;;8.20;5.18;;;16.00;83.40;;;;;;5073219;28;20020;-80
2021/07/30 03:35:33;;;;;;;10.38;5.28;;;16.00;83.50;;;;;;5073286;28;20024;-79
2021/07/30 03:37:59;;;;;;;9.07;5.07;;;15.90;83.60;;;;;;5073169;28;20434;-80
2021/07/30 03:40:24;;;;;;;9.32;5.07;;;15.90;84.30;;;;;;5071629;28;20071;-79
2021/07/30 03:42:50;;;;;;;13.75;5.53;;;15.90;83.80;;;;;;5073080;28;20120;-79
2021/07/30 03:45:16;;;;;;;11.82;5.20;;;15.90;83.80;;;;;;5073366;28;20119;-80
2021/07/30 03:47:41;;;;;;;12.32;5.60;;;15.90;83.80;;;;;;5073087;28;20025;-80
2021/07/30 03:50:08;;;;;;;9.23;5.22;;;15.80;83.70;;;;;;5072560;28;20086;-79
2021/07/30 03:52:33;;;;;;;11.43;5.70;;;15.90;83.80;;;;;;5072993;28;20488;-80
2021/07/30 03:54:59;;;;;;;9.07;5.20;;;15.90;83.90;;;;;;5071510;28;20036;-79
2021/07/30 03:57:24;;;;;;;12.85;6.15;;;15.90;83.90;;;;;;5072571;28;20059;-80
2021/07/30 03:59:53;;;;;;;11.73;5.93;;;15.80;83.80;;;;;;5072453;28;20032;-80
2021/07/30 04:02:19;;;;;;;12.57;6.07;;;15.80;83.90;;;;;;5072587;28;20501;-80
2021/07/30 04:04:44;;;;;;;13.50;5.70;;;15.80;83.90;;;;;;5071458;28;20115;-79
2021/07/30 04:07:10;;;;;;;16.30;5.40;;;15.70;84.00;;;;;;5072859;28;20116;-80
2021/07/30 04:09:36;;;;;;;14.30;6.30;;;15.70;84.10;;;;;;5071507;28;20466;-79
2021/07/30 04:12:01;;;;;;;8.48;5.20;;;15.70;84.20;;;;;;5070941;28;20082;-80
2021/07/30 04:14:27;;;;;;;10.65;5.68;;;15.70;84.30;;;;;;5070949;28;20029;-80
2021/07/30 04:16:52;;;;;;;13.75;5.93;;;15.70;84.40;;;;;;5072400;28;20048;-80
2021/07/30 04:19:18;;;;;;;7.93;5.10;;;15.70;84.40;;;;;;5054564;28;20033;-80
2021/07/30 04:21:44;;;;;;;11.25;5.40;;;15.70;84.50;;;;;;5072808;28;20043;-80
2021/07/30 04:24:09;;;;;;;11.60;5.45;;;15.70;84.50;;;;;;5072800;28;20533;-79
2021/07/30 04:26:35;;;;;;;9.23;5.20;;;15.80;84.60;;;;;;5071741;28;20033;-80
2021/07/30 04:29:01;;;;;;;8.93;4.90;;;15.80;84.60;;;;;;5071335;28;20024;-79
2021/07/30 04:31:26;;;;;;;13.15;5.20;;;15.80;84.60;;;;;;5072797;28;20036;-80
2021/07/30 04:33:52;;;;;;;12.60;5.68;;;15.80;84.60;;;;;;5071483;28;20028;-80
2021/07/30 04:36:18;;;;;;;11.05;4.57;;;15.80;84.60;;;;;;5072602;28;20029;-80
2021/07/30 04:38:44;;;;;;;8.05;4.55;;;15.80;84.70;;;;;;5072652;28;20024;-80
2021/07/30 04:41:10;;;;;;;12.45;5.28;;;15.80;84.80;;;;;;5072365;28;20021;-80
2021/07/30 04:43:36;;;;;;;10.15;4.80;;;15.80;84.90;;;;;;5072681;28;20024;-80
2021/07/30 04:46:02;;;;;;;15.32;5.50;;;15.80;85.00;;;;;;5072654;28;20025;-80
2021/07/30 04:48:28;;;;;;;13.15;5.53;;;15.90;85.00;;;;;;5072585;28;20025;-80
2021/07/30 04:50:54;;;;;;;10.02;5.15;;;15.90;85.00;;;;;;5072402;28;20381;-80
2021/07/30 04:53:19;;;;;;;7.63;4.18;;;15.90;85.00;;;;;;5076083;28;20029;-80
2021/07/30 04:55:45;;;;;;;11.55;4.88;;;15.90;85.00;;;;;;5076117;28;20024;-80
2021/07/30 04:58:11;;;;;;;10.90;4.70;;;16.00;84.90;;;;;;5076066;28;20044;-80
2021/07/30 05:00:36;;;;;;;9.80;4.65;;;16.00;84.80;;;;;;5075988;28;20068;-80
2021/07/30 05:03:02;;;;;;;11.90;4.50;;;16.10;84.60;;;;;;5075723;28;20044;-80
2021/07/30 05:05:29;;;;;;;11.75;4.75;;;16.10;84.40;;;;;;5075891;28;20025;-80
2021/07/30 05:07:55;;;;;;;10.63;4.72;;;16.20;84.30;;;;;;5075957;28;20020;-80
2021/07/30 05:10:20;;;;;;;10.00;4.80;;;16.20;84.10;;;;;;5075558;28;20051;-80
2021/07/30 05:12:46;;;;;;;13.30;5.32;;;16.30;84.00;;;;;;5074695;28;20052;-79
2021/07/30 05:15:13;;;;;;;11.50;4.43;;;16.30;84.00;;;;;;5075531;28;20482;-80
2021/07/30 05:17:40;;;;;;;9.05;4.75;;;16.30;84.00;;;;;;5075716;28;20138;-79
2021/07/30 05:20:07;;;;;;;8.45;4.90;;;16.40;83.90;;;;;;5092396;28;20089;-80
2021/07/30 05:22:32;;;;;;;8.98;5.10;;;16.40;84.50;;;;;;5086570;28;20066;-73
2021/07/30 05:24:58;;;;;;;10.60;4.63;;;16.40;83.80;;;;;;5073164;28;20516;-74
2021/07/30 05:27:24;;;;;;;6.80;4.20;;;16.50;83.70;;;;;;5074285;28;20097;-74
2021/07/30 05:29:49;;;;;;;7.80;4.78;;;16.50;83.70;;;;;;5072173;28;20031;-74
2021/07/30 05:32:15;;;;;;;11.15;5.10;;;16.60;83.60;;;;;;5072958;28;20071;-74
2021/07/30 05:34:40;;;;;;;10.80;4.93;;;16.60;83.40;;;;;;5074651;28;20047;-74
2021/07/30 05:37:06;;;;;;;9.02;4.75;;;16.70;83.20;;;;;;5073248;28;20028;-74
2021/07/30 05:39:31;;;;;;;8.88;4.82;;;16.80;82.90;;;;;;5056637;28;20108;-75
2021/07/30 05:41:57;;;;;;;8.30;4.57;;;16.80;82.70;;;;;;5073059;28;20181;-74
2021/07/30 05:44:23;;;;;;;8.60;4.45;;;16.90;82.60;;;;;;5072995;28;20051;-74
2021/07/30 05:46:48;;;;;;;10.20;4.32;;;17.00;82.40;;;;;;5074272;28;20043;-74
2021/07/30 05:49:14;;;;;;;9.05;4.97;;;17.00;82.30;;;;;;5073769;28;20467;-74
2021/07/30 05:51:40;;;;;;;9.25;4.35;;;17.10;82.30;;;;;;5074062;28;20033;-74
2021/07/30 05:54:05;;;;;;;8.02;4.57;;;17.10;82.10;;;;;;5055739;28;20025;-74
2021/07/30 05:56:31;;;;;;;9.63;4.78;;;17.20;82.00;;;;;;5073903;28;20033;-74
2021/07/30 05:58:57;;;;;;;8.35;4.78;;;17.20;81.80;;;;;;5073969;28;20074;-74
2021/07/30 06:01:24;;;;;;;10.65;4.43;;;17.30;81.60;;;;;;5073011;28;20041;-74
2021/07/30 06:03:51;;;;;;;8.27;4.28;;;17.30;81.40;;;;;;5074094;28;20106;-74
2021/07/30 06:06:17;;;;;;;9.35;4.15;;;17.40;81.10;;;;;;5074226;28;20060;-74
2021/07/30 06:08:43;;;;;;;9.85;4.15;;;17.40;80.80;;;;;;5072433;28;20028;-74
2021/07/30 06:11:08;;;;;;;9.07;3.75;;;17.50;80.30;;;;;;5073782;28;20470;-74
2021/07/30 06:13:34;;;;;;;8.55;3.58;;;17.60;80.00;;;;;;5073635;28;20032;-75
2021/07/30 06:16:00;;;;;;;12.13;3.70;;;17.70;79.60;;;;;;5073419;28;20059;-74
2021/07/30 06:18:25;;;;;;;6.18;3.65;;;17.90;79.30;;;;;;5073733;28;20039;-74
2021/07/30 06:20:51;;;;;;;9.90;4.30;;;18.00;78.90;;;;;;5073464;28;20489;-74
2021/07/30 06:23:17;;;;;;;6.97;3.60;;;18.10;78.60;;;;;;5072780;28;20056;-75
2021/07/30 06:25:42;;;;;;;7.90;3.70;;;18.10;78.40;;;;;;5061723;28;20022;-74
2021/07/30 06:28:08;;;;;;;5.72;3.35;;;18.30;77.70;;;;;;5082965;28;20025;-75
2021/07/30 06:30:34;;;;;;;5.95;3.15;;;18.30;77.30;;;;;;5072008;28;20060;-74
2021/07/30 06:32:59;;;;;;;5.70;3.10;;;18.30;77.20;;;;;;5073126;28;20039;-75
2021/07/30 06:35:26;;;;;;;9.85;3.83;;;18.40;77.90;;;;;;5071495;28;20068;-74
2021/07/30 06:37:52;;;;;;;6.45;3.60;;;18.40;76.80;;;;;;5072087;28;20025;-75
2021/07/30 06:40:18;;;;;;;6.95;3.13;;;18.50;76.50;;;;;;5072936;28;20040;-74
2021/07/30 06:42:43;;;;;;;6.07;3.45;;;18.60;76.40;;;;;;5071854;28;20028;-75
2021/07/30 06:45:09;;;;;;;10.05;3.33;;;18.60;75.80;;;;;;5071671;28;20504;-75
2021/07/30 06:47:38;;;;;;;6.40;3.15;;;18.70;75.20;;;;;;5072908;28;20025;-75
2021/07/30 06:50:05;;;;;;;11.75;3.08;;;18.80;75.20;;;;;;5072386;28;20408;-74
2021/07/30 06:52:31;;;;;;;10.77;3.45;;;18.90;75.10;;;;;;5071708;28;20039;-74
2021/07/30 06:54:57;;;;;;;9.55;3.30;;;19.10;74.40;;;;;;5072574;28;20118;-74
2021/07/30 06:57:22;;;;;;;4.85;2.65;;;19.20;73.90;;;;;;5054912;28;20056;-74
2021/07/30 06:59:49;;;;;;;7.55;2.70;;;19.30;73.80;;;;;;5071018;28;20029;-75
2021/07/30 07:02:15;;;;;;;5.57;3.10;;;19.40;74.10;;;;;;5072509;28;20047;-76
2021/07/30 07:04:40;;;;;;;8.43;3.40;;;19.50;74.20;;;;;;5051505;28;20025;-75
2021/07/30 07:07:06;;;;;;;7.65;2.90;;;19.60;73.60;;;;;;5052919;28;20025;-75
2021/07/30 07:09:32;;;;;;;7.50;2.70;;;19.60;73.40;;;;;;5060456;28;20046;-76
2021/07/30 07:11:58;;;;;;;9.27;2.85;;;19.60;73.50;;;;;;5071409;28;20485;-76
2021/07/30 07:14:23;;;;;;;7.38;2.90;;;19.60;73.60;;;;;;5072238;28;20354;-76
2021/07/30 07:16:49;;;;;;;6.13;2.80;;;19.60;73.40;;;;;;5071354;28;20476;-75
2021/07/30 07:19:15;;;;;;;8.68;2.83;;;19.60;72.80;;;;;;5054080;28;20052;-75
2021/07/30 07:21:40;;;;;;;6.70;2.63;;;19.70;72.40;;;;;;5072218;28;20059;-75
2021/07/30 07:24:07;;;;;;;8.80;2.83;;;19.70;71.90;;;;;;5072129;28;20024;-75
2021/07/30 07:26:37;;;;;;;6.68;2.55;;;19.90;72.20;;;;;;5071692;28;20108;-75
2021/07/30 07:29:04;;;;;;;6.72;2.95;;;20.00;72.20;;;;;;5070967;28;20029;-76
2021/07/30 07:31:30;;;;;;;8.40;2.80;;;20.20;70.90;;;;;;5072113;28;20120;-75
2021/07/30 07:33:55;;;;;;;6.07;2.63;;;20.40;70.70;;;;;;5072167;28;20112;-75
2021/07/30 07:36:21;;;;;;;8.20;2.45;;;20.50;70.70;;;;;;5072534;28;20516;-75
2021/07/30 07:38:46;;;;;;;5.05;2.20;;;20.50;70.10;;;;;;5072267;28;20037;-75
2021/07/30 07:41:12;;;;;;;6.85;2.25;;;20.60;69.40;;;;;;5070734;28;20145;-75
2021/07/30 07:43:38;;;;;;;6.18;2.60;;;20.80;68.90;;;;;;5070963;28;20392;-75
2021/07/30 07:46:03;;;;;;;8.55;2.65;;;21.00;68.80;;;;;;5070686;28;20107;-75
2021/07/30 07:48:29;;;;;;;9.23;2.40;;;21.20;67.70;;;;;;5072162;28;20542;-75
2021/07/30 07:50:55;;;;;;;5.93;2.33;;;21.30;67.00;;;;;;5072276;28;20059;-75
2021/07/30 07:53:21;;;;;;;6.55;2.28;;;21.30;66.40;;;;;;5071033;28;20420;-75
2021/07/30 07:55:48;;;;;;;3.40;2.00;;;21.20;67.30;;;;;;5072007;28;20060;-75
2021/07/30 07:58:14;;;;;;;5.10;2.17;;;21.20;67.40;;;;;;5072003;28;20036;-74
2021/07/30 08:00:41;;;;;;;6.60;2.42;;;21.20;67.60;;;;;;5071473;28;20032;-75
2021/07/30 08:03:06;;;;;;;6.05;1.83;;;21.20;67.20;;;;;;5070848;28;20072;-75
2021/07/30 08:05:32;;;;;;;3.50;1.90;;;21.20;66.70;;;;;;5072429;28;20125;-75
2021/07/30 08:07:58;;;;;;;4.15;1.80;;;21.20;66.60;;;;;;5070973;28;20037;-75
2021/07/30 08:10:24;;;;;;;6.72;1.77;;;21.30;66.50;;;;;;5072301;28;20039;-75
2021/07/30 08:12:49;;;;;;;4.38;1.95;;;21.30;66.40;;;;;;5071027;28;20385;-76
2021/07/30 08:15:15;;;;;;;4.30;1.92;;;21.50;65.60;;;;;;5071995;28;20032;-75
2021/07/30 08:17:41;;;;;;;9.13;2.05;;;21.60;65.60;;;;;;5071231;28;20424;-74
2021/07/30 08:20:07;;;;;;;5.35;1.75;;;21.70;65.70;;;;;;5071958;28;20021;-75
2021/07/30 08:22:34;;;;;;;5.40;2.05;;;21.60;65.10;;;;;;5070309;28;20024;-75
2021/07/30 08:24:59;;;;;;;4.45;1.75;;;21.60;66.10;;;;;;5070851;28;20078;-75
2021/07/30 08:27:25;;;;;;;10.35;1.88;;;21.60;66.60;;;;;;5072558;28;20040;-74
2021/07/30 08:29:50;;;;;;;4.50;1.80;;;21.70;65.90;;;;;;5074123;28;20029;-74
2021/07/30 08:32:17;;;;;;;6.15;1.70;;;22.00;65.10;;;;;;5091297;28;20029;-75
2021/07/30 08:34:43;;;;;;;5.40;1.67;;;22.30;65.10;;;;;;5074610;28;20044;-75
2021/07/30 08:37:10;;;;;;;6.63;1.77;;;22.60;63.10;;;;;;5078852;28;20078;-75
2021/07/30 08:39:36;;;;;;;5.28;1.67;;;22.80;61.20;;;;;;5082919;28;20058;-75
2021/07/30 08:42:04;;;;;;;7.72;1.50;;;23.00;60.30;;;;;;5074417;28;20032;-74
2021/07/30 08:44:30;;;;;;;5.68;1.80;;;23.30;61.90;;;;;;5095614;28;20066;-75
2021/07/30 08:46:57;;;;;;;5.95;2.00;;;23.30;60.70;;;;;;5094433;28;20020;-74
2021/07/30 08:49:23;;;;;;;3.50;1.50;;;23.30;61.20;;;;;;5093134;28;20028;-75
2021/07/30 08:52:07;;;;;;;4.93;1.55;;;23.40;61.40;;;;;;5074725;28;20040;-75
2021/07/30 08:54:34;;;;;;;2.85;1.50;;;23.60;61.10;;;;;;5086218;28;20113;-74
2021/07/30 08:57:00;;;;;;;3.17;1.55;;;23.70;61.50;;;;;;5095288;28;20051;-75
2021/07/30 08:59:25;;;;;;;6.55;1.70;;;23.80;59.70;;;;;;5076864;28;20477;-74
2021/07/30 09:01:55;;;;;;;11.38;2.13;;;23.90;59.60;;;;;;5074700;28;20478;-75
2021/07/30 09:04:27;;;;;;;4.78;1.80;;;23.90;59.00;;;;;;5074278;28;20111;-75
2021/07/30 09:06:54;;;;;;;5.38;1.90;;;23.80;59.90;;;;;;5073291;28;20082;-75
2021/07/30 09:09:20;;;;;;;4.40;1.92;;;23.70;60.30;;;;;;5075218;28;20024;-75
2021/07/30 09:11:46;;;;;;;7.47;1.90;;;23.70;60.00;;;;;;5074502;28;20037;-75
2021/07/30 09:14:12;;;;;;;4.82;1.80;;;23.80;60.70;;;;;;5073381;28;20062;-73
2021/07/30 09:16:51;;;;;;;6.57;1.77;;;24.00;59.90;;;;;;5075157;28;20028;-76
2021/07/30 09:19:17;;;;;;;6.25;1.85;;;24.20;58.10;;;;;;5074821;28;20035;-75
2021/07/30 09:21:43;;;;;;;6.22;1.63;;;24.40;58.00;;;;;;5074628;28;20029;-74
2021/07/30 09:24:20;;;;;;;4.65;1.83;;;24.50;58.30;;;;;;5074586;28;20400;-75
2021/07/30 09:26:50;;;;;;;4.97;1.80;;;24.70;57.40;;;;;;5067811;28;20032;-76
2021/07/30 09:29:21;;;;;;;4.05;1.70;;;24.80;56.00;;;;;;5074595;28;20046;-75
2021/07/30 09:31:54;;;;;;;4.38;1.77;;;25.00;57.50;;;;;;5073309;28;20467;-75
2021/07/30 09:34:27;;;;;;;5.88;1.90;;;25.00;57.10;;;;;;5072813;28;20124;-76
2021/07/30 09:36:55;;;;;;;2.58;1.70;;;25.20;54.50;;;;;;5074528;28;20043;-75
2021/07/30 09:39:22;;;;;;;;;;;25.20;55.90;;;;;;5067451;28;20111;-76
2021/07/30 09:42:09;;;;;;;5.63;1.30;;;25.40;55.10;;;;;;5058759;28;19917;-76
2021/07/30 09:44:51;;;;;;;4.28;1.90;;;25.70;55.00;;;;;;5053381;28;20021;-76
2021/07/30 09:47:20;;;;;;;2.67;1.73;;;25.70;55.00;;;;;;5062628;28;20074;-75
2021/07/30 09:49:57;;;;;;;3.75;1.73;;;25.70;55.30;;;;;;5074319;28;20028;-75
2021/07/30 09:52:28;;;;;;;6.13;1.92;;;25.70;54.60;;;;;;5074182;28;20056;-77
2021/07/30 09:54:58;;;;;;;3.03;1.77;;;25.70;54.50;;;;;;5074439;28;20023;-76
2021/07/30 09:57:26;;;;;;;5.50;1.75;;;25.50;55.90;;;;;;5090088;28;20082;-76
2021/07/30 09:59:58;;;;;;;8.00;1.80;;;25.40;54.80;;;;;;5074239;28;20656;-76
2021/07/30 10:02:32;;;;;;;6.43;1.80;;;25.50;55.30;;;;;;5072726;28;20409;-77
2021/07/30 10:04:58;;;;;;;8.57;1.80;;;25.60;55.80;;;;;;5074411;28;20055;-76
2021/07/30 10:07:29;;;;;;;6.25;1.80;;;25.80;54.80;;;;;;5066300;28;20506;-77
2021/07/30 10:10:19;;;;;;;6.05;2.15;;;26.00;54.60;;;;;;5059964;28;20473;-77
2021/07/30 10:12:51;;;;;;;7.07;1.80;;;26.10;54.40;;;;;;5072996;28;20124;-77
2021/07/30 10:15:17;;;;;;;4.88;1.80;;;26.10;54.50;;;;;;5072515;28;20032;-77
2021/07/30 10:17:43;;;;;;;4.88;1.75;;;26.30;54.50;;;;;;5071137;28;20062;-77
2021/07/30 10:20:10;;;;;;;8.60;1.65;;;26.40;54.30;;;;;;5072588;28;20063;-76
2021/07/30 10:22:55;;;;;;;3.97;1.50;;;26.40;53.60;;;;;;5072561;28;20455;-76
2021/07/30 10:25:28;;;;;;;7.88;2.25;;;26.40;53.00;;;;;;5073285;28;20103;-76
2021/07/30 10:28:04;;;;;;;4.40;1.60;;;26.40;53.60;;;;;;5073451;28;20078;-76
2021/07/30 10:30:52;;;;;;;3.67;1.80;;;26.40;53.70;;;;;;5073335;28;20028;-77
2021/07/30 10:33:30;;;;;;;6.07;1.90;;;26.30;53.80;;;;;;5072436;28;20021;-76
2021/07/30 10:36:19;;;;;;;4.22;1.90;;;26.30;53.40;;;;;;5073097;28;20040;-76
2021/07/30 10:39:18;;;;;;;3.88;1.67;;;26.40;53.80;;;;;;5052801;28;20036;-76
2021/07/30 10:42:10;;;;;;;2.40;1.90;;;26.50;52.50;;;;;;5071148;28;20036;-77
2021/07/30 10:44:56;;;;;;;3.72;1.85;;;26.40;52.70;;;;;;5072280;28;20509;-76
2021/07/30 10:47:22;;;;;;;4.40;1.98;;;26.20;52.80;;;;;;5072346;28;20029;-77
2021/07/30 10:49:47;;;;;;;3.17;1.60;;;26.10;53.00;;;;;;5077780;28;20020;-77
2021/07/30 10:52:27;;;;;;;3.08;1.80;;;26.10;53.70;;;;;;5072340;28;20503;-77
2021/07/30 10:54:53;;;;;;;7.78;2.08;;;26.00;54.30;;;;;;5069552;28;20036;-77
2021/07/30 10:57:53;;;;;;;3.88;2.28;;;25.90;54.60;;;;;;5072167;28;20410;-76
2021/07/30 11:00:19;;;;;;;2.88;1.95;;;25.90;54.50;;;;;;5058742;28;20111;-78
2021/07/30 11:03:04;;;;;;;3.53;1.75;;;25.90;54.20;;;;;;5077642;28;20127;-77
2021/07/30 11:05:30;;;;;;;7.28;2.47;;;26.10;54.70;;;;;;5056159;28;20146;-77
2021/07/30 11:08:01;;;;;;;2.70;1.80;;;26.40;53.90;;;;;;5057384;28;20427;-76
2021/07/30 11:10:26;;;;;;;5.20;1.98;;;26.80;53.50;;;;;;5071674;28;20123;-77
2021/07/30 11:12:56;;;;;;;4.43;1.98;;;27.00;53.50;;;;;;5071642;28;20163;-77
2021/07/30 11:15:30;;;;;;;3.50;2.00;;;27.20;53.00;;;;;;5068321;28;20029;-77
2021/07/30 11:18:00;;;;;;;2.60;1.70;;;27.20;52.90;;;;;;5051920;28;20478;-78
2021/07/30 11:20:32;;;;;;;3.33;2.10;;;27.30;52.40;;;;;;5035445;28;20504;-77
2021/07/30 11:23:02;;;;;;;3.47;1.85;;;27.40;51.20;;;;;;5058807;28;20033;-78
2021/07/30 11:25:28;;;;;;;5.55;2.17;;;27.40;50.60;;;;;;5063717;28;20054;-78
2021/07/30 11:27:58;;;;;;;4.10;1.80;;;27.40;51.00;;;;;;5080511;28;20054;-78
2021/07/30 11:30:28;;;;;;;4.55;2.00;;;27.40;51.30;;;;;;5092977;28;20024;-80
2021/07/30 11:32:55;;;;;;;6.97;2.10;;;27.40;51.40;;;;;;5093707;28;20024;-79
2021/07/30 11:35:21;;;;;;;3.75;2.17;;;27.60;50.30;;;;;;5042757;28;20518;-79
2021/07/30 11:37:57;;;;;;;4.53;1.98;;;27.50;50.10;;;;;;5072405;28;20115;-79
2021/07/30 11:40:23;;;;;;;3.28;2.08;;;27.60;49.90;;;;;;5075778;28;20465;-80
2021/07/30 11:42:49;;;;;;;3.35;2.05;;;27.60;49.90;;;;;;5051803;28;20112;-79
2021/07/30 11:45:20;;;;;;;5.30;2.00;;;27.70;49.90;;;;;;5064116;28;20024;-79
2021/07/30 11:47:45;;;;;;;5.10;2.00;;;27.90;50.10;;;;;;5071777;28;20059;-80
2021/07/30 11:50:16;;;;;;;3.72;2.00;;;28.00;50.00;;;;;;5071998;28;20029;-80
2021/07/30 11:52:42;;;;;;;6.72;2.17;;;28.10;50.00;;;;;;5067826;28;20052;-80
2021/07/30 11:55:18;;;;;;;4.47;2.10;;;28.20;50.60;;;;;;5043112;28;20067;-80
2021/07/30 11:57:45;;;;;;;6.60;2.38;;;28.10;49.40;;;;;;5073243;28;20017;-80
2021/07/30 12:00:11;;;;;;;3.58;2.08;;;28.10;49.40;;;;;;5073573;28;20017;-79
2021/07/30 12:02:37;;;;;;;4.57;1.92;;;27.90;50.30;;;;;;5092845;28;20049;-79
2021/07/30 12:05:02;;;;;;;5.53;2.20;;;27.70;50.60;;;;;;5076024;28;20407;-81
2021/07/30 12:07:39;;;;;;;5.97;2.05;;;27.50;50.40;;;;;;5076147;28;20100;-81
2021/07/30 12:10:18;;;;;;;21.42;3.00;;;27.30;50.60;;;;;;5076919;28;20025;-85
2021/07/30 12:12:44;;;;;;;7.00;2.28;;;27.20;51.50;;;;;;5075879;28;20032;-81
2021/07/30 12:15:11;;;;;;;8.70;2.17;;;27.20;50.80;;;;;;5075752;28;20031;-81
2021/07/30 12:17:37;;;;;;;4.65;2.10;;;27.10;51.00;;;;;;5076976;28;20067;-83
2021/07/30 12:20:10;;;;;;;5.75;2.30;;;27.10;50.80;;;;;;5076945;28;20028;-83
2021/07/30 12:22:39;;;;;;;8.02;2.40;;;27.10;51.90;;;;;;5075711;28;20028;-81
2021/07/30 12:25:07;;;;;;;6.18;2.25;;;27.00;52.30;;;;;;5077695;28;20021;-81
2021/07/30 12:27:33;;;;;;;9.43;2.10;;;26.90;52.60;;;;;;5075593;28;20091;-82
2021/07/30 12:29:59;;;;;;;3.58;2.03;;;26.90;52.00;;;;;;5072254;28;20037;-82
2021/07/30 12:32:34;;;;;;;3.72;2.40;;;26.80;52.10;;;;;;5056786;28;20390;-84
2021/07/30 12:35:06;;;;;;;5.95;2.40;;;26.70;52.80;;;;;;5039972;28;20025;-83
2021/07/30 12:37:33;;;;;;;4.18;2.10;;;26.50;52.40;;;;;;5056236;28;20126;-81
2021/07/30 12:40:05;;;;;;;4.72;2.38;;;26.40;52.70;;;;;;5056601;28;20033;-83
2021/07/30 12:42:34;;;;;;;7.70;2.20;;;26.20;52.60;;;;;;5065613;28;20039;-83
2021/07/30 12:45:09;;;;;;;5.07;2.50;;;26.10;52.60;;;;;;5076524;28;20070;-82
2021/07/30 12:47:47;;;;;;;4.80;2.20;;;26.00;52.50;;;;;;5074888;28;20102;-83
2021/07/30 12:50:43;;;;;;;8.52;2.20;;;25.90;53.50;;;;;;5075875;28;20025;-80